createdAt,value
2019-01-25T00:02:56.616Z,28.16
2019-01-25T00:08:04.631Z,26.81
2019-01-25T00:13:12.777Z,26.53
2019-01-25T00:18:20.788Z,28.70
2019-01-25T00:23:29.184Z,30.02
2019-01-25T00:28:37.244Z,30.77
2019-01-25T00:33:45.344Z,30.71
2019-01-25T00:38:53.363Z,31.12
2019-01-25T00:44:01.456Z,30.44
2019-01-25T00:49:09.497Z,31.68
2019-01-25T00:54:18.008Z,31.94
2019-01-25T00:59:26.342Z,32.33
2019-01-25T01:04:34.436Z,31.42
2019-01-25T01:09:42.565Z,30.96
2019-01-25T01:14:50.637Z,31.07
2019-01-25T01:19:58.665Z,31.54
2019-01-25T01:25:06.951Z,30.06
2019-01-25T01:30:14.933Z,31.63
2019-01-25T01:35:23.094Z,32.30
2019-01-25T01:40:31.153Z,31.05
2019-01-25T01:45:39.503Z,31.28
2019-01-25T01:50:47.553Z,29.93
2019-01-25T01:55:55.809Z,30.47
2019-01-25T02:01:03.877Z,30.54
2019-01-25T02:06:12.075Z,30.07
2019-01-25T02:11:20.496Z,28.98
2019-01-25T02:16:28.566Z,30.33
2019-01-25T02:21:36.559Z,32.63
2019-01-25T02:26:44.693Z,29.87
2019-01-25T02:31:52.706Z,29.53
2019-01-25T02:37:00.822Z,30.25
2019-01-25T02:42:08.816Z,29.87
2019-01-25T02:47:17.368Z,29.11
2019-01-25T02:52:25.342Z,29.34
2019-01-25T02:57:33.517Z,29.25
2019-01-25T03:02:41.592Z,29.64
2019-01-25T03:07:49.882Z,28.16
2019-01-25T03:12:58.029Z,28.88
2019-01-25T03:18:06.184Z,29.32
2019-01-25T03:23:14.185Z,28.96
2019-01-25T03:28:22.307Z,29.44
2019-01-25T03:33:30.297Z,29.35
2019-01-25T03:38:38.449Z,28.96
2019-01-25T03:43:46.461Z,29.49
2019-01-25T03:48:54.529Z,29.96
2019-01-25T03:54:03.344Z,29.01
2019-01-25T03:59:11.441Z,26.59
2019-01-25T04:04:19.498Z,27.27
2019-01-25T04:09:27.605Z,24.96
2019-01-25T04:14:35.601Z,26.25
2019-01-25T04:19:43.833Z,26.62
2019-01-25T04:24:51.809Z,25.89
2019-01-25T04:29:59.889Z,25.49
2019-01-25T04:35:07.882Z,26.57
2019-01-25T04:40:15.953Z,28.93
2019-01-25T04:45:24.533Z,28.67
2019-01-25T04:50:32.607Z,26.36
2019-01-25T04:55:40.612Z,26.52
2019-01-25T05:00:48.746Z,26.62
2019-01-25T05:05:56.929Z,26.35
2019-01-25T05:11:05.014Z,25.47
2019-01-25T05:16:13.006Z,27.01
2019-01-25T05:21:21.144Z,26.66
2019-01-25T05:26:29.135Z,26.86
2019-01-25T05:31:37.248Z,26.11
2019-01-25T05:36:45.255Z,26.37
2019-01-25T05:41:53.826Z,25.61
2019-01-25T05:47:01.967Z,26.06
2019-01-25T05:52:10.047Z,26.92
2019-01-25T05:57:12.043Z,24.73
2019-01-25T06:02:20.174Z,25.74
2019-01-25T06:07:28.158Z,25.21
2019-01-25T06:12:36.410Z,26.53
2019-01-25T06:17:44.450Z,24.25
2019-01-25T06:22:52.576Z,22.31
2019-01-25T06:28:00.549Z,24.62
2019-01-25T06:33:08.669Z,25.11
2019-01-25T06:38:16.974Z,22.84
2019-01-25T06:43:25.285Z,24.57
2019-01-25T06:48:33.517Z,25.54
2019-01-25T06:53:47.713Z,25.52
2019-01-25T06:58:45.729Z,23.30
2019-01-25T07:03:53.963Z,21.68
2019-01-25T07:09:05.371Z,22.70
2019-01-25T07:14:02.181Z,26.22
2019-01-25T07:19:10.429Z,26.54
2019-01-25T07:24:18.642Z,26.65
2019-01-25T07:29:26.766Z,27.91
2019-01-25T07:34:47.405Z,26.55
2019-01-25T07:39:35.409Z,25.93
2019-01-25T07:44:42.365Z,27.43
2019-01-25T07:49:50.838Z,26.21
2019-01-25T07:54:58.977Z,25.38
2019-01-25T08:00:07.306Z,25.98
2019-01-25T08:05:15.867Z,24.07
2019-01-25T08:10:24.236Z,22.79
2019-01-25T08:15:37.094Z,22.43
2019-01-25T08:20:35.117Z,23.47
2019-01-25T08:25:43.591Z,22.25
2019-01-25T08:30:53.576Z,22.50
2019-01-25T08:35:54.585Z,22.78
2019-01-25T08:40:53.013Z,24.65
2019-01-25T08:46:00.316Z,22.08
2019-01-25T08:51:06.835Z,22.83
2019-01-25T08:56:16.100Z,23.71
2019-01-25T09:01:26.091Z,22.88
2019-01-25T09:06:24.585Z,23.50
2019-01-25T09:11:32.649Z,24.70
2019-01-25T09:16:40.769Z,22.30
2019-01-25T09:21:48.856Z,21.95
2019-01-25T09:26:56.957Z,22.94
2019-01-25T09:32:05.029Z,21.91
2019-01-25T09:37:13.106Z,22.30
2019-01-25T09:42:21.165Z,22.07
2019-01-25T09:47:29.369Z,22.24
2019-01-25T09:52:37.332Z,23.63
2019-01-25T09:57:43.945Z,24.08
2019-01-25T10:02:53.196Z,20.98
2019-01-25T10:08:01.841Z,21.16
2019-01-25T10:13:09.938Z,22.24
2019-01-25T10:18:18.038Z,20.92
2019-01-25T10:23:26.137Z,21.93
2019-01-25T10:28:34.321Z,21.65
2019-01-25T10:33:42.481Z,21.97
2019-01-25T10:38:50.713Z,23.12
2019-01-25T10:43:58.840Z,23.49
2019-01-25T10:49:06.931Z,25.78
2019-01-25T10:54:15.018Z,25.51
2019-01-25T10:59:23.163Z,25.41
2019-01-25T11:04:31.185Z,27.49
2019-01-25T11:09:39.262Z,28.33
2019-01-25T11:14:47.544Z,27.06
2019-01-25T11:19:55.625Z,26.65
2019-01-25T11:25:03.908Z,26.99
2019-01-25T11:30:12.051Z,27.65
2019-01-25T11:35:20.225Z,27.36
2019-01-25T11:40:28.457Z,25.34
2019-01-25T11:45:36.902Z,26.81
2019-01-25T11:50:45.048Z,26.30
2019-01-25T11:55:53.141Z,26.87
2019-01-25T12:01:01.840Z,25.32
2019-01-25T12:06:09.929Z,25.25
2019-01-25T12:11:18.045Z,24.86
2019-01-25T12:16:26.100Z,26.62
2019-01-25T12:21:34.383Z,27.11
2019-01-25T12:26:40.895Z,28.94
2019-01-25T12:31:49.019Z,27.43
2019-01-25T12:36:57.134Z,28.93
2019-01-25T12:42:05.240Z,29.13
2019-01-25T12:47:13.281Z,30.88
2019-01-25T12:52:21.578Z,31.90
2019-01-25T12:57:29.972Z,33.46
2019-01-25T13:02:38.057Z,31.68
2019-01-25T13:07:46.087Z,34.06
2019-01-25T13:12:54.318Z,32.36
2019-01-25T13:18:02.524Z,32.12
2019-01-25T13:23:10.721Z,31.49
2019-01-25T13:28:18.871Z,32.36
2019-01-25T13:33:26.908Z,34.58
2019-01-25T13:38:35.066Z,35.61
2019-01-25T13:43:43.420Z,34.35
2019-01-25T13:48:51.597Z,35.54
2019-01-25T13:53:59.714Z,31.83
2019-01-25T13:59:07.966Z,33.22
2019-01-25T14:04:15.945Z,35.10
2019-01-25T14:09:23.953Z,36.29
2019-01-25T14:14:32.029Z,36.56
2019-01-25T14:19:40.300Z,36.25
2019-01-25T14:24:48.429Z,38.30
2019-01-25T14:29:56.662Z,37.63
2019-01-25T14:35:04.839Z,40.13
2019-01-25T14:40:12.873Z,40.57
2019-01-25T14:45:21.159Z,41.42
2019-01-25T14:50:29.310Z,41.32
2019-01-25T14:55:37.956Z,40.91
2019-01-25T15:00:46.098Z,41.55
2019-01-25T15:05:54.582Z,42.15
2019-01-25T15:11:02.718Z,42.09
2019-01-25T15:16:10.845Z,42.71
2019-01-25T15:21:19.391Z,42.25
2019-01-25T15:26:28.042Z,42.44
2019-01-25T15:31:36.524Z,39.77
2019-01-25T15:36:44.687Z,36.86
2019-01-25T15:41:52.708Z,36.89
2019-01-25T15:47:01.342Z,36.32
2019-01-25T15:52:09.417Z,33.77
2019-01-25T15:57:17.503Z,35.81
2019-01-25T16:02:25.896Z,33.72
2019-01-25T16:07:33.118Z,35.13
2019-01-25T16:12:43.259Z,34.25
2019-01-25T16:17:53.101Z,32.82
2019-01-25T16:22:53.246Z,34.23
2019-01-25T16:28:03.537Z,35.21
2019-01-25T16:33:03.270Z,34.14
2019-01-25T16:38:13.257Z,36.56
2019-01-25T16:43:13.188Z,37.20
2019-01-25T16:48:13.427Z,34.45
2019-01-25T16:53:23.199Z,36.01
2019-01-25T16:58:23.498Z,37.03
2019-01-25T17:03:38.956Z,34.68
2019-01-25T17:08:38.102Z,35.76
2019-01-25T17:13:46.198Z,33.94
2019-01-25T17:18:54.387Z,34.50
2019-01-25T17:24:05.489Z,34.03
2019-01-25T17:29:04.630Z,33.88
2019-01-25T17:34:13.169Z,36.05
2019-01-25T17:39:27.871Z,35.24
2019-01-25T17:44:25.830Z,34.74
2019-01-25T17:49:33.953Z,32.72
2019-01-25T17:54:41.931Z,36.30
2019-01-25T17:59:50.101Z,36.66
2019-01-25T18:04:57.966Z,35.96
2019-01-25T18:10:06.705Z,35.88
2019-01-25T18:15:14.546Z,33.81
2019-01-25T18:20:22.738Z,35.83
2019-01-25T18:25:30.776Z,34.32
2019-01-25T18:30:39.530Z,33.89
2019-01-25T18:35:47.821Z,35.41
2019-01-25T18:40:56.006Z,34.89
2019-01-25T18:46:00.723Z,35.56
2019-01-25T18:51:09.656Z,34.31
2019-01-25T18:56:18.425Z,35.14
2019-01-25T19:01:20.005Z,34.07
2019-01-25T19:06:28.081Z,35.84
2019-01-25T19:11:36.261Z,35.86
2019-01-25T19:16:44.373Z,34.97
2019-01-25T19:21:52.458Z,36.58
2019-01-25T19:27:00.490Z,34.14
2019-01-25T19:32:08.662Z,32.56
2019-01-25T19:37:15.745Z,35.22
2019-01-25T19:42:24.357Z,34.44
2019-01-25T19:47:32.407Z,34.52
2019-01-25T19:52:40.326Z,35.13
2019-01-25T19:57:48.336Z,36.73
2019-01-25T20:02:56.511Z,35.83
2019-01-25T20:08:04.553Z,35.96
2019-01-25T20:13:12.767Z,38.58
2019-01-25T20:18:21.201Z,36.91
2019-01-25T20:23:29.400Z,37.37
2019-01-25T20:28:37.416Z,40.05
2019-01-25T20:33:46.141Z,40.45
2019-01-25T20:38:54.404Z,43.49
2019-01-25T20:44:02.761Z,43.79
2019-01-25T20:49:10.937Z,42.23
2019-01-25T20:54:19.159Z,42.53
2019-01-25T20:59:27.210Z,44.75
2019-01-25T21:04:35.423Z,46.50
2019-01-25T21:09:43.512Z,47.37
2019-01-25T21:14:51.749Z,44.64
2019-01-25T21:19:59.775Z,46.61
2019-01-25T21:25:07.781Z,45.21
2019-01-25T21:30:16.290Z,47.18
2019-01-25T21:35:24.833Z,47.17
2019-01-25T21:40:35.037Z,47.36
2019-01-25T21:45:33.956Z,44.94
2019-01-25T21:50:41.999Z,44.42
2019-01-25T21:55:50.125Z,44.55
2019-01-25T22:00:58.174Z,44.62
2019-01-25T22:06:06.341Z,45.68
2019-01-25T22:11:14.383Z,42.69
2019-01-25T22:16:22.462Z,43.18
2019-01-25T22:21:30.593Z,40.96
2019-01-25T22:26:38.913Z,37.13
2019-01-25T22:31:46.957Z,41.51
2019-01-25T22:36:55.774Z,40.39
2019-01-25T22:42:03.761Z,40.38
2019-01-25T22:47:11.913Z,39.74
2019-01-25T22:52:19.942Z,39.46
2019-01-25T22:57:28.366Z,41.17
2019-01-25T23:02:36.597Z,39.93
2019-01-25T23:07:44.691Z,42.30
2019-01-25T23:12:52.680Z,44.32
2019-01-25T23:18:01.126Z,39.25
2019-01-25T23:23:09.144Z,40.20
2019-01-25T23:28:17.372Z,35.90
2019-01-25T23:33:25.704Z,36.30
2019-01-25T23:38:34.137Z,33.43
2019-01-25T23:43:42.140Z,32.28
2019-01-25T23:48:50.281Z,32.19
2019-01-25T23:53:58.373Z,28.97
2019-01-25T23:59:06.544Z,33.34
